Time;durP1;ratioP1;P1;durP2;ratioP2;P2;SDS_P1;SDS_P2;PMS_P1;PMS_P2;Temp;Humidity;BMP_temperature;BMP_pressure;BME280_temperature;BME280_humidity;BME280_pressure;Samples;Min_cycle;Max_cycle;Signal;HPM_P1;HPM_P2
2020/12/05 00:01:07;;;;;;;6.03;3.47;;;4.40;61.50;;;;;;5024941;28;20324;-63
2020/12/05 00:03:32;;;;;;;5.68;3.15;;;4.40;61.50;;;;;;5045743;28;20037;-63
2020/12/05 00:05:58;;;;;;;6.78;3.40;;;4.40;61.10;;;;;;5043245;28;20049;-62
2020/12/05 00:08:23;;;;;;;6.10;3.50;;;4.40;61.10;;;;;;5041222;28;20101;-64
2020/12/05 00:10:49;;;;;;;5.90;3.25;;;4.30;62.10;;;;;;5042412;28;20033;-64
2020/12/05 00:13:15;;;;;;;5.05;3.20;;;4.30;62.20;;;;;;5041998;28;20213;-61
2020/12/05 00:15:40;;;;;;;5.68;3.38;;;4.20;62.20;;;;;;5040850;28;20056;-62
2020/12/05 00:18:06;;;;;;;5.05;3.28;;;4.30;62.10;;;;;;5044096;28;20064;-65
2020/12/05 00:20:32;;;;;;;6.65;3.78;;;4.10;62.50;;;;;;5058287;28;20045;-63
2020/12/05 00:22:57;;;;;;;7.50;3.55;;;4.00;63.20;;;;;;5029661;28;20057;-64
2020/12/05 00:25:23;;;;;;;8.52;3.80;;;3.80;63.50;;;;;;5021173;28;20073;-63
2020/12/05 00:27:49;;;;;;;6.50;3.78;;;3.70;63.90;;;;;;5019509;28;20321;-66
2020/12/05 00:30:15;;;;;;;6.32;3.83;;;3.70;63.70;;;;;;5024807;28;20053;-66
2020/12/05 00:32:40;;;;;;;6.38;3.80;;;3.50;63.90;;;;;;5036682;28;20336;-65
2020/12/05 00:35:06;;;;;;;8.20;4.68;;;3.40;64.60;;;;;;5041992;28;20044;-65
2020/12/05 00:37:32;;;;;;;8.45;4.57;;;3.50;63.80;;;;;;5033832;28;20040;-66
2020/12/05 00:39:57;;;;;;;8.43;3.63;;;3.80;63.60;;;;;;5024456;28;20032;-66
2020/12/05 00:42:24;;;;;;;7.47;4.13;;;3.80;63.60;;;;;;5045015;28;20332;-62
2020/12/05 00:44:49;;;;;;;7.18;3.53;;;3.80;63.70;;;;;;5040967;28;20108;-64
2020/12/05 00:47:15;;;;;;;7.22;4.00;;;3.60;64.50;;;;;;5041494;28;20045;-65
2020/12/05 00:49:41;;;;;;;7.00;4.03;;;3.60;64.70;;;;;;5031924;28;20033;-63
2020/12/05 00:52:06;;;;;;;6.57;3.95;;;3.40;64.70;;;;;;5025145;28;20320;-63
2020/12/05 00:54:32;;;;;;;8.25;3.58;;;3.40;65.40;;;;;;5044804;28;20230;-63
2020/12/05 00:56:57;;;;;;;6.55;3.85;;;3.20;65.70;;;;;;5040331;28;20299;-63
2020/12/05 00:59:23;;;;;;;7.20;4.20;;;3.20;66.30;;;;;;5042101;28;20033;-65
2020/12/05 01:01:53;;;;;;;7.57;4.15;;;3.30;66.30;;;;;;5042314;28;20092;-65
2020/12/05 01:04:19;;;;;;;6.13;3.95;;;3.30;66.00;;;;;;5039846;28;20029;-65
2020/12/05 01:06:45;;;;;;;5.95;3.78;;;3.30;66.60;;;;;;5041435;28;20026;-64
2020/12/05 01:09:10;;;;;;;9.45;4.55;;;3.20;66.20;;;;;;5043716;28;20029;-64
2020/12/05 01:11:36;;;;;;;9.50;4.00;;;3.20;66.30;;;;;;5038185;28;20068;-63
2020/12/05 01:14:01;;;;;;;8.23;4.15;;;3.10;66.60;;;;;;5039596;28;20155;-65
2020/12/05 01:16:27;;;;;;;6.80;4.00;;;3.00;66.50;;;;;;5033613;28;20041;-66
2020/12/05 01:18:53;;;;;;;7.60;3.97;;;3.00;67.00;;;;;;5022528;28;20034;-64
2020/12/05 01:21:18;;;;;;;7.38;4.13;;;2.90;66.90;;;;;;5044193;28;20036;-65
2020/12/05 01:23:44;;;;;;;7.32;3.92;;;2.90;67.10;;;;;;5017421;28;20083;-64
2020/12/05 01:26:10;;;;;;;8.48;4.32;;;2.90;67.40;;;;;;5041417;28;20037;-65
2020/12/05 01:28:36;;;;;;;7.68;4.10;;;3.10;67.30;;;;;;5040269;28;20055;-65
2020/12/05 01:31:02;;;;;;;7.00;3.80;;;3.10;67.30;;;;;;5040574;28;20036;-63
2020/12/05 01:33:27;;;;;;;7.05;3.70;;;2.90;67.80;;;;;;5044531;28;20033;-63
2020/12/05 01:35:53;;;;;;;7.32;4.22;;;2.90;67.80;;;;;;5040077;28;20044;-62
2020/12/05 01:38:18;;;;;;;7.25;4.00;;;2.90;68.10;;;;;;5039247;28;20045;-63
2020/12/05 01:40:57;;;;;;;7.20;4.05;;;3.00;67.90;;;;;;5041763;28;20048;-62
2020/12/05 01:43:22;;;;;;;7.72;4.13;;;3.20;67.70;;;;;;5043082;28;20057;-63
2020/12/05 01:45:48;;;;;;;9.30;4.15;;;2.90;67.50;;;;;;5048573;28;20197;-63
2020/12/05 01:48:18;;;;;;;8.23;4.00;;;2.80;68.10;;;;;;5045415;28;20227;-64
2020/12/05 01:50:43;;;;;;;7.40;4.53;;;2.90;68.70;;;;;;5042816;28;20064;-63
2020/12/05 01:53:09;;;;;;;5.72;3.70;;;3.00;68.60;;;;;;5043379;28;20041;-63
2020/12/05 01:55:35;;;;;;;6.47;3.85;;;3.00;68.80;;;;;;5041085;28;20319;-63
2020/12/05 01:58:01;;;;;;;6.30;3.75;;;2.90;68.60;;;;;;5044200;28;20033;-63
2020/12/05 02:00:26;;;;;;;7.05;4.00;;;3.10;68.80;;;;;;5047776;28;20028;-63
2020/12/05 02:02:52;;;;;;;7.63;4.28;;;3.20;68.80;;;;;;5005078;28;20046;-63
2020/12/05 02:05:22;;;;;;;8.52;4.05;;;3.10;68.20;;;;;;5043415;28;20045;-63
2020/12/05 02:07:55;;;;;;;6.63;3.75;;;3.10;68.30;;;;;;5037325;28;20370;-63
2020/12/05 02:10:25;;;;;;;6.75;3.72;;;3.00;68.80;;;;;;5024609;28;20052;-63
2020/12/05 02:12:54;;;;;;;7.00;3.65;;;2.90;68.90;;;;;;5026578;28;20100;-63
2020/12/05 02:15:23;;;;;;;6.28;3.50;;;2.90;69.20;;;;;;5023325;28;20105;-63
2020/12/05 02:17:58;;;;;;;7.03;3.55;;;3.10;68.30;;;;;;5020976;28;20102;-63
2020/12/05 02:20:24;;;;;;;7.32;3.50;;;3.20;68.40;;;;;;5021747;28;20061;-63
2020/12/05 02:22:49;;;;;;;7.60;4.00;;;3.20;67.90;;;;;;5024020;28;20049;-63
2020/12/05 02:25:15;;;;;;;6.72;3.50;;;3.30;67.20;;;;;;5020649;28;20041;-63
2020/12/05 02:27:43;;;;;;;5.68;3.10;;;3.40;68.00;;;;;;5026721;28;20026;-63
2020/12/05 02:30:10;;;;;;;7.63;3.45;;;3.30;67.90;;;;;;5021415;28;20044;-63
2020/12/05 02:32:36;;;;;;;5.55;3.20;;;3.30;67.90;;;;;;5023795;28;20287;-63
2020/12/05 02:35:01;;;;;;;7.78;3.67;;;3.20;67.90;;;;;;5024765;28;20034;-63
2020/12/05 02:37:28;;;;;;;5.30;3.72;;;3.20;67.90;;;;;;5024146;28;20041;-63
2020/12/05 02:39:54;;;;;;;6.80;3.67;;;3.30;67.90;;;;;;5027794;28;20034;-63
2020/12/05 02:42:19;;;;;;;4.90;3.60;;;3.30;68.10;;;;;;5023580;28;20100;-63
2020/12/05 02:44:49;;;;;;;6.80;3.47;;;3.40;67.80;;;;;;5025733;28;20034;-63
2020/12/05 02:47:15;;;;;;;5.53;3.40;;;3.30;68.10;;;;;;5024970;28;20033;-63
2020/12/05 02:49:40;;;;;;;7.47;3.38;;;3.20;68.00;;;;;;5018529;28;20375;-63
2020/12/05 02:52:06;;;;;;;6.70;3.47;;;3.20;67.70;;;;;;5023211;28;20022;-64
2020/12/05 02:54:32;;;;;;;5.45;3.03;;;3.20;68.50;;;;;;5026812;28;20038;-63
2020/12/05 02:57:00;;;;;;;5.38;3.08;;;3.10;68.60;;;;;;5023244;28;20049;-63
2020/12/05 02:59:26;;;;;;;6.43;3.58;;;3.00;68.50;;;;;;5023063;28;20042;-63
2020/12/05 03:01:52;;;;;;;6.05;3.00;;;3.20;68.10;;;;;;5023160;28;20034;-64
2020/12/05 03:04:18;;;;;;;5.03;3.00;;;3.20;68.50;;;;;;5023654;28;20034;-63
2020/12/05 03:06:43;;;;;;;5.38;3.30;;;3.20;68.60;;;;;;5027276;28;20028;-63
2020/12/05 03:09:09;;;;;;;5.35;3.45;;;3.10;68.90;;;;;;5040662;28;20221;-63
2020/12/05 03:11:34;;;;;;;6.25;3.20;;;3.20;68.70;;;;;;5043465;28;20348;-63
2020/12/05 03:14:00;;;;;;;5.43;3.22;;;3.10;69.00;;;;;;5035590;28;20042;-63
2020/12/05 03:16:25;;;;;;;6.70;3.33;;;3.20;69.40;;;;;;5025294;28;20041;-63
2020/12/05 03:18:51;;;;;;;6.03;3.42;;;3.20;69.00;;;;;;5046611;28;20229;-64
2020/12/05 03:21:16;;;;;;;8.25;3.60;;;3.30;69.10;;;;;;5043522;28;20329;-63
2020/12/05 03:23:45;;;;;;;7.18;3.75;;;3.40;69.20;;;;;;5040284;28;20041;-63
2020/12/05 03:26:14;;;;;;;7.47;3.45;;;3.40;68.80;;;;;;5043805;28;20108;-63
2020/12/05 03:28:40;;;;;;;8.05;3.92;;;3.50;68.80;;;;;;5040717;28;20037;-63
2020/12/05 03:31:06;;;;;;;13.02;6.40;;;3.70;68.60;;;;;;5046116;28;20032;-63
2020/12/05 03:33:35;;;;;;;15.52;7.15;;;3.70;68.60;;;;;;5042287;28;20117;-63
2020/12/05 03:36:00;;;;;;;12.90;7.32;;;3.70;68.60;;;;;;5042501;28;20033;-63
2020/12/05 03:38:26;;;;;;;12.70;7.97;;;3.80;68.90;;;;;;5042407;28;20029;-63
2020/12/05 03:40:51;;;;;;;16.42;9.18;;;3.90;68.90;;;;;;5034120;28;20030;-62
2020/12/05 03:43:17;;;;;;;15.75;9.70;;;3.90;69.20;;;;;;5021384;28;20078;-64
2020/12/05 03:45:42;;;;;;;16.48;9.65;;;3.80;69.50;;;;;;5025957;28;20030;-63
2020/12/05 03:48:12;;;;;;;20.33;10.32;;;3.90;69.80;;;;;;5037857;28;20051;-63
2020/12/05 03:50:38;;;;;;;18.38;10.55;;;3.90;69.90;;;;;;5042497;28;20045;-63
2020/12/05 03:53:03;;;;;;;23.80;13.10;;;3.90;69.90;;;;;;5040445;28;20359;-63
2020/12/05 03:55:29;;;;;;;23.92;14.02;;;3.90;69.60;;;;;;5043219;28;20038;-63
2020/12/05 03:57:54;;;;;;;25.60;14.73;;;3.70;70.50;;;;;;5045913;28;20071;-63
2020/12/05 04:00:20;;;;;;;28.83;14.95;;;3.80;70.50;;;;;;5033634;28;20083;-63
2020/12/05 04:02:45;;;;;;;26.42;15.15;;;3.70;70.80;;;;;;5011871;28;20107;-63
2020/12/05 04:05:11;;;;;;;27.73;16.38;;;3.70;71.30;;;;;;5026083;28;20271;-63
2020/12/05 04:07:37;;;;;;;26.65;16.08;;;3.70;71.00;;;;;;5038708;28;20029;-63
2020/12/05 04:10:03;;;;;;;24.98;15.68;;;3.60;71.40;;;;;;5024792;28;20217;-63
2020/12/05 04:12:28;;;;;;;29.45;16.95;;;3.70;72.00;;;;;;5019058;28;20127;-63
2020/12/05 04:14:54;;;;;;;31.00;16.25;;;3.70;71.70;;;;;;5021254;28;20345;-63
2020/12/05 04:17:19;;;;;;;30.00;17.33;;;3.80;71.90;;;;;;5020104;28;20328;-63
2020/12/05 04:19:45;;;;;;;29.75;16.95;;;3.70;71.60;;;;;;5023275;28;20092;-63
2020/12/05 04:22:11;;;;;;;31.35;17.17;;;3.70;72.00;;;;;;5045391;28;20033;-63
2020/12/05 04:24:37;;;;;;;30.50;16.75;;;3.70;72.20;;;;;;5040386;28;20109;-63
2020/12/05 04:27:02;;;;;;;33.58;17.85;;;3.70;72.50;;;;;;5056314;28;20034;-63
2020/12/05 04:29:28;;;;;;;31.50;16.85;;;3.70;72.00;;;;;;5041575;28;20025;-63
2020/12/05 04:31:53;;;;;;;31.45;17.83;;;3.70;72.60;;;;;;5040757;28;20037;-62
2020/12/05 04:34:19;;;;;;;31.98;18.27;;;3.60;72.50;;;;;;5045104;28;20315;-63
2020/12/05 04:36:45;;;;;;;29.55;17.17;;;3.60;72.40;;;;;;5074452;28;20037;-63
2020/12/05 04:39:10;;;;;;;32.10;17.73;;;3.60;72.80;;;;;;5027223;28;20041;-63
2020/12/05 04:41:36;;;;;;;33.13;17.08;;;3.70;72.80;;;;;;5021910;28;20321;-63
2020/12/05 04:44:02;;;;;;;28.80;16.77;;;3.80;72.80;;;;;;5019009;28;20044;-63
2020/12/05 04:46:27;;;;;;;28.10;17.15;;;3.80;72.90;;;;;;5025217;28;20021;-63
2020/12/05 04:48:53;;;;;;;29.00;16.75;;;3.70;72.80;;;;;;5021106;28;20038;-63
2020/12/05 04:51:20;;;;;;;30.52;17.30;;;3.80;73.50;;;;;;5020818;28;20042;-63
2020/12/05 04:53:47;;;;;;;32.80;18.15;;;3.70;73.30;;;;;;5018439;28;20060;-63
2020/12/05 04:56:16;;;;;;;29.33;17.05;;;3.80;73.50;;;;;;5020335;28;20105;-63
2020/12/05 04:58:48;;;;;;;28.60;17.42;;;3.70;73.50;;;;;;5020923;28;20046;-63
2020/12/05 05:01:17;;;;;;;31.83;17.58;;;3.80;73.50;;;;;;5024685;28;20036;-63
2020/12/05 05:03:43;;;;;;;31.35;18.23;;;3.90;73.20;;;;;;5012691;28;20216;-62
2020/12/05 05:06:20;;;;;;;29.02;17.80;;;3.90;73.70;;;;;;5041768;28;20037;-63
2020/12/05 05:08:46;;;;;;;29.67;17.60;;;3.90;73.30;;;;;;5041893;28;20332;-63
2020/12/05 05:11:14;;;;;;;32.17;18.50;;;3.90;73.00;;;;;;5041118;28;20037;-63
2020/12/05 05:13:54;;;;;;;29.80;17.65;;;3.90;73.20;;;;;;5042120;28;20233;-65
2020/12/05 05:16:20;;;;;;;31.10;18.48;;;3.90;73.50;;;;;;5043864;28;20030;-63
2020/12/05 05:18:46;;;;;;;32.53;17.67;;;3.90;73.40;;;;;;5039642;28;20035;-63
2020/12/05 05:21:37;;;;;;;30.60;18.48;;;3.90;73.50;;;;;;5041164;28;20033;-63
2020/12/05 05:24:10;;;;;;;29.33;17.17;;;4.00;73.50;;;;;;5029134;28;20038;-63
2020/12/05 05:26:36;;;;;;;30.85;18.95;;;4.00;73.80;;;;;;5028074;28;20033;-63
2020/12/05 05:29:02;;;;;;;29.45;17.45;;;4.00;73.50;;;;;;5040256;28;20080;-63
2020/12/05 05:31:41;;;;;;;32.28;18.50;;;4.10;73.60;;;;;;5044602;28;20089;-63
2020/12/05 05:34:07;;;;;;;29.38;17.92;;;4.20;73.60;;;;;;5036002;28;20104;-63
2020/12/05 05:36:33;;;;;;;30.17;17.75;;;4.20;73.30;;;;;;5040885;28;20228;-63
2020/12/05 05:39:08;;;;;;;33.53;19.42;;;4.30;73.40;;;;;;5030079;28;20292;-63
2020/12/05 05:41:34;;;;;;;29.67;17.80;;;4.30;73.30;;;;;;5037898;28;20037;-63
2020/12/05 05:44:07;;;;;;;29.95;18.58;;;4.30;73.40;;;;;;5039250;28;20117;-63
2020/12/05 05:46:34;;;;;;;32.55;19.00;;;4.20;73.50;;;;;;5044454;28;20243;-63
2020/12/05 05:49:00;;;;;;;32.58;19.20;;;4.20;73.80;;;;;;5040935;28;20225;-63
2020/12/05 05:51:39;;;;;;;31.48;19.17;;;4.20;73.30;;;;;;5039092;28;20037;-63
2020/12/05 05:54:20;;;;;;;29.88;18.17;;;4.20;73.20;;;;;;5039369;28;20375;-63
2020/12/05 05:57:10;;;;;;;30.45;18.27;;;4.10;73.40;;;;;;5039647;28;20037;-63
2020/12/05 05:59:37;;;;;;;33.65;18.00;;;4.10;73.50;;;;;;5041317;28;20033;-63
2020/12/05 06:02:04;;;;;;;30.33;18.50;;;4.10;73.60;;;;;;5037504;28;20083;-63
2020/12/05 06:04:53;;;;;;;31.85;18.45;;;4.10;73.70;;;;;;5044046;28;20026;-63
2020/12/05 06:07:19;;;;;;;31.48;18.85;;;4.10;73.70;;;;;;5037587;28;20093;-63
2020/12/05 06:09:52;;;;;;;29.73;17.73;;;4.10;73.70;;;;;;5037820;28;20037;-63
2020/12/05 06:12:20;;;;;;;31.33;18.58;;;4.10;73.40;;;;;;5040317;28;20061;-63
2020/12/05 06:14:46;;;;;;;34.22;19.25;;;4.00;73.30;;;;;;5038501;28;20049;-63
2020/12/05 06:17:11;;;;;;;29.70;17.75;;;4.10;73.40;;;;;;5037320;28;20313;-63
2020/12/05 06:19:39;;;;;;;31.33;18.48;;;4.10;73.60;;;;;;5043926;28;20060;-63
2020/12/05 06:22:05;;;;;;;30.80;19.02;;;4.10;73.70;;;;;;5038991;28;20341;-63
2020/12/05 06:24:45;;;;;;;31.67;18.08;;;4.10;73.80;;;;;;5020780;28;20048;-63
2020/12/05 06:27:11;;;;;;;31.65;18.13;;;4.10;73.90;;;;;;5037199;28;20034;-63
2020/12/05 06:29:37;;;;;;;32.42;18.92;;;4.10;73.60;;;;;;5041728;28;20029;-63
2020/12/05 06:32:03;;;;;;;30.23;18.27;;;4.10;73.50;;;;;;5046430;28;20025;-63
2020/12/05 06:34:39;;;;;;;34.35;19.38;;;4.20;73.80;;;;;;5044735;28;20045;-64
2020/12/05 06:37:05;;;;;;;28.92;18.13;;;4.20;73.80;;;;;;5044225;28;20041;-63
2020/12/05 06:39:31;;;;;;;32.55;19.58;;;4.10;73.80;;;;;;5041705;28;20085;-63
2020/12/05 06:41:56;;;;;;;32.47;19.35;;;4.10;73.70;;;;;;5041230;28;20338;-63
2020/12/05 06:44:24;;;;;;;31.42;17.75;;;4.20;73.40;;;;;;5044652;28;20231;-63
2020/12/05 06:46:57;;;;;;;30.52;17.83;;;4.20;73.40;;;;;;5046950;28;20320;-63
2020/12/05 06:49:46;;;;;;;29.92;18.17;;;4.20;73.50;;;;;;5044158;28;20292;-63
2020/12/05 06:52:27;;;;;;;31.13;18.08;;;4.10;73.40;;;;;;5041317;28;20033;-63
2020/12/05 06:55:08;;;;;;;29.88;18.45;;;4.00;73.60;;;;;;5044223;28;20313;-63
2020/12/05 06:57:35;;;;;;;32.85;18.38;;;4.20;73.30;;;;;;5040103;28;20041;-63
2020/12/05 07:00:16;;;;;;;29.63;18.05;;;4.10;73.50;;;;;;5042375;28;20041;-63
2020/12/05 07:02:49;;;;;;;29.98;16.90;;;4.30;73.40;;;;;;5040332;28;20057;-63
2020/12/05 07:05:20;;;;;;;29.48;19.17;;;4.30;73.60;;;;;;5046809;28;20339;-63
2020/12/05 07:07:49;;;;;;;29.23;17.90;;;4.30;73.40;;;;;;5044026;28;20352;-63
2020/12/05 07:10:18;;;;;;;30.65;18.52;;;4.30;73.70;;;;;;5041222;28;20329;-64
2020/12/05 07:12:44;;;;;;;30.48;18.83;;;4.40;73.70;;;;;;5025548;28;20049;-64
2020/12/05 07:15:21;;;;;;;31.02;19.40;;;4.40;74.10;;;;;;5038493;28;20041;-63
2020/12/05 07:17:48;;;;;;;36.50;18.80;;;4.50;73.70;;;;;;5021742;28;20085;-63
2020/12/05 07:20:13;;;;;;;30.98;18.83;;;4.40;74.10;;;;;;5025707;28;20022;-63
2020/12/05 07:22:39;;;;;;;34.08;18.88;;;4.40;74.20;;;;;;5041219;28;20121;-63
2020/12/05 07:25:04;;;;;;;36.65;19.50;;;4.30;74.10;;;;;;5043841;28;20224;-63
2020/12/05 07:27:30;;;;;;;33.47;20.20;;;4.40;74.10;;;;;;5038900;28;20037;-63
2020/12/05 07:29:56;;;;;;;32.05;18.80;;;4.40;74.10;;;;;;5043188;28;20093;-63
2020/12/05 07:32:21;;;;;;;34.83;19.35;;;4.40;74.00;;;;;;5046029;28;20037;-63
2020/12/05 07:34:47;;;;;;;33.75;19.13;;;4.50;73.80;;;;;;5041806;28;20037;-63
2020/12/05 07:37:26;;;;;;;33.78;19.33;;;4.50;74.10;;;;;;5039304;28;20037;-63
2020/12/05 07:39:52;;;;;;;30.42;18.90;;;4.60;74.20;;;;;;5041313;28;20336;-62
2020/12/05 07:42:18;;;;;;;32.95;19.45;;;4.50;74.30;;;;;;5074738;28;20075;-61
2020/12/05 07:44:44;;;;;;;33.88;19.83;;;4.70;74.30;;;;;;5042826;28;20033;-62
2020/12/05 07:47:19;;;;;;;30.67;18.35;;;4.70;73.90;;;;;;5045782;28;20300;-62
2020/12/05 07:49:52;;;;;;;31.70;18.83;;;4.80;73.90;;;;;;5042068;28;20105;-63
2020/12/05 07:52:19;;;;;;;30.05;18.30;;;4.80;73.90;;;;;;5034427;28;20351;-63
2020/12/05 07:54:55;;;;;;;30.00;18.15;;;4.80;73.50;;;;;;5028083;28;20029;-63
2020/12/05 07:57:22;;;;;;;28.92;16.95;;;4.80;73.50;;;;;;5027171;28;20038;-63
2020/12/05 07:59:48;;;;;;;29.17;17.20;;;4.80;73.60;;;;;;5046357;28;20056;-64
2020/12/05 08:02:16;;;;;;;28.60;17.85;;;4.80;73.60;;;;;;5042532;28;20041;-64
2020/12/05 08:04:52;;;;;;;29.75;17.35;;;4.80;73.40;;;;;;5043060;28;20254;-62
2020/12/05 08:07:45;;;;;;;26.27;16.70;;;4.90;73.60;;;;;;5042111;28;20041;-62
2020/12/05 08:10:11;;;;;;;28.13;16.60;;;5.00;73.00;;;;;;5024320;28;20075;-62
2020/12/05 08:12:43;;;;;;;28.15;16.58;;;5.10;72.80;;;;;;5024414;28;20049;-63
2020/12/05 08:15:08;;;;;;;29.35;17.38;;;5.20;72.60;;;;;;5042985;28;20304;-63
2020/12/05 08:17:35;;;;;;;27.60;16.45;;;5.30;73.10;;;;;;5044359;28;20049;-64
2020/12/05 08:20:03;;;;;;;27.85;16.52;;;5.20;72.20;;;;;;5040209;28;20044;-64
2020/12/05 08:22:30;;;;;;;27.40;16.77;;;5.10;72.50;;;;;;5041210;28;20041;-68
2020/12/05 08:24:56;;;;;;;30.73;16.52;;;5.20;72.70;;;;;;5039510;28;20075;-68
2020/12/05 08:27:21;;;;;;;29.60;17.40;;;5.20;72.20;;;;;;5037583;28;20068;-64
2020/12/05 08:29:48;;;;;;;29.13;17.25;;;5.10;72.30;;;;;;5043856;28;20332;-65
2020/12/05 08:32:18;;;;;;;29.08;17.27;;;5.00;72.30;;;;;;5040615;28;20328;-66
2020/12/05 08:34:43;;;;;;;27.58;16.92;;;5.20;71.90;;;;;;5041463;28;20037;-66
2020/12/05 08:37:09;;;;;;;25.23;15.55;;;5.40;71.90;;;;;;5040331;28;20232;-66
2020/12/05 08:39:34;;;;;;;30.33;17.30;;;5.40;71.60;;;;;;5033246;28;20387;-63
2020/12/05 08:42:00;;;;;;;30.27;17.50;;;5.40;71.40;;;;;;5007970;28;20217;-64
2020/12/05 08:44:28;;;;;;;31.55;18.35;;;5.40;71.40;;;;;;5002804;28;20038;-64
2020/12/05 08:47:03;;;;;;;27.92;16.42;;;5.40;71.90;;;;;;5022367;28;20047;-64
2020/12/05 08:49:36;;;;;;;24.77;15.50;;;5.40;71.90;;;;;;5033109;28;20060;-64
2020/12/05 08:52:02;;;;;;;21.80;13.57;;;5.60;71.60;;;;;;5028279;28;20405;-63
2020/12/05 08:54:27;;;;;;;23.70;13.88;;;5.50;71.20;;;;;;5017482;28;20037;-64
2020/12/05 08:57:09;;;;;;;24.10;13.88;;;5.60;71.10;;;;;;5045080;28;20096;-64
2020/12/05 08:59:35;;;;;;;22.67;14.07;;;5.70;71.90;;;;;;4967378;28;20235;-64
2020/12/05 09:02:00;;;;;;;22.33;14.10;;;5.70;71.60;;;;;;5020949;28;20034;-64
2020/12/05 09:04:27;;;;;;;21.63;13.48;;;5.70;71.80;;;;;;5020514;28;20109;-63
2020/12/05 09:06:53;;;;;;;26.38;13.90;;;5.60;71.60;;;;;;5022074;28;20296;-64
2020/12/05 09:09:29;;;;;;;23.88;14.73;;;5.50;71.90;;;;;;5020955;28;20034;-64
2020/12/05 09:12:04;;;;;;;27.25;15.82;;;5.60;71.50;;;;;;5024332;28;20054;-64
2020/12/05 09:14:30;;;;;;;24.40;16.50;;;5.70;71.30;;;;;;5020193;28;20050;-64
2020/12/05 09:16:55;;;;;;;26.92;16.80;;;5.80;71.60;;;;;;5021841;28;20153;-63
2020/12/05 09:19:27;;;;;;;31.25;17.98;;;5.70;71.40;;;;;;5020518;28;20344;-63
2020/12/05 09:21:52;;;;;;;30.50;18.40;;;5.40;71.30;;;;;;5023598;28;20083;-63
2020/12/05 09:24:18;;;;;;;32.38;19.63;;;5.50;71.40;;;;;;5041724;28;20029;-64
2020/12/05 09:26:51;;;;;;;29.50;18.48;;;5.50;71.20;;;;;;5044320;28;20313;-63
2020/12/05 09:29:17;;;;;;;30.05;18.35;;;5.20;71.80;;;;;;5040809;28;20041;-64
2020/12/05 09:31:52;;;;;;;29.83;17.30;;;5.10;72.60;;;;;;5071167;28;20075;-64
2020/12/05 09:34:35;;;;;;;26.73;17.05;;;5.40;72.30;;;;;;5041092;28;20228;-64
2020/12/05 09:37:07;;;;;;;26.98;16.50;;;5.30;71.70;;;;;;5038409;28;20048;-64
2020/12/05 09:39:33;;;;;;;26.48;15.60;;;5.20;72.10;;;;;;5039548;28;20329;-64
2020/12/05 09:41:58;;;;;;;24.40;15.25;;;5.20;72.20;;;;;;5044468;28;20062;-63
2020/12/05 09:44:24;;;;;;;28.05;17.60;;;5.40;71.80;;;;;;5040361;28;20041;-63
2020/12/05 09:46:49;;;;;;;32.90;19.45;;;5.30;71.80;;;;;;5040815;28;20041;-63
2020/12/05 09:49:15;;;;;;;32.53;19.13;;;5.40;71.50;;;;;;5038890;28;20037;-62
2020/12/05 09:51:41;;;;;;;32.90;19.33;;;5.10;72.20;;;;;;5039992;28;20224;-62
2020/12/05 09:54:06;;;;;;;32.75;19.25;;;4.90;72.50;;;;;;5043736;28;20316;-63
2020/12/05 09:56:32;;;;;;;35.85;19.90;;;5.20;72.10;;;;;;5041187;28;20041;-63
2020/12/05 09:58:57;;;;;;;30.70;19.50;;;5.10;72.10;;;;;;5040820;28;20037;-63
2020/12/05 10:01:26;;;;;;;32.92;19.60;;;5.00;71.90;;;;;;5034858;28;20029;-62
2020/12/05 10:03:52;;;;;;;32.35;19.23;;;5.00;72.20;;;;;;5045048;28;20049;-61
2020/12/05 10:06:17;;;;;;;30.05;17.48;;;5.20;72.20;;;;;;5048021;28;20026;-62
2020/12/05 10:08:43;;;;;;;33.47;19.75;;;5.40;72.00;;;;;;5045384;28;20039;-63
2020/12/05 10:11:08;;;;;;;32.25;19.67;;;5.40;71.70;;;;;;5044641;28;20344;-62
2020/12/05 10:13:34;;;;;;;36.83;21.45;;;5.40;71.60;;;;;;5039102;28;20317;-63
2020/12/05 10:16:00;;;;;;;34.20;20.45;;;5.40;71.40;;;;;;5040475;28;20038;-63
2020/12/05 10:18:25;;;;;;;32.10;18.85;;;5.40;71.30;;;;;;5026989;28;20045;-63
2020/12/05 10:20:51;;;;;;;29.90;18.77;;;5.40;71.20;;;;;;5042601;28;20041;-63
2020/12/05 10:23:16;;;;;;;34.88;19.33;;;5.40;71.20;;;;;;5044722;28;20033;-62
2020/12/05 10:25:42;;;;;;;32.78;20.25;;;5.40;71.50;;;;;;5044168;28;20056;-63
2020/12/05 10:28:07;;;;;;;33.83;19.45;;;5.30;71.00;;;;;;5044861;28;20080;-63
2020/12/05 10:30:33;;;;;;;31.30;18.88;;;5.10;72.00;;;;;;5050300;28;20021;-62
2020/12/05 10:32:58;;;;;;;32.78;19.52;;;5.30;71.70;;;;;;5046161;28;20116;-65
2020/12/05 10:35:24;;;;;;;38.85;22.27;;;5.30;71.50;;;;;;5044831;28;20104;-62
2020/12/05 10:37:50;;;;;;;39.90;23.30;;;5.30;71.50;;;;;;5043262;28;20037;-63
2020/12/05 10:40:15;;;;;;;40.67;25.10;;;5.30;71.70;;;;;;5044633;28;20221;-63
2020/12/05 10:42:41;;;;;;;44.67;26.23;;;5.30;71.80;;;;;;5044033;28;20060;-63
2020/12/05 10:45:06;;;;;;;40.55;24.27;;;5.10;72.40;;;;;;5046828;28;20301;-63
2020/12/05 10:47:32;;;;;;;38.05;23.23;;;5.20;72.20;;;;;;5039372;28;20048;-62
2020/12/05 10:49:57;;;;;;;36.50;22.30;;;5.20;72.90;;;;;;5043740;28;20240;-67
2020/12/05 10:52:23;;;;;;;36.63;21.00;;;5.10;73.20;;;;;;5041898;28;20202;-65
2020/12/05 10:54:48;;;;;;;41.30;22.50;;;5.10;73.40;;;;;;5044458;28;20048;-66
2020/12/05 10:57:14;;;;;;;37.33;22.70;;;5.10;73.70;;;;;;5046727;28;20035;-66
2020/12/05 10:59:39;;;;;;;39.60;22.13;;;5.10;74.10;;;;;;5044261;28;20067;-64
2020/12/05 11:02:05;;;;;;;37.50;20.75;;;5.20;73.80;;;;;;5041484;28;20060;-66
2020/12/05 11:04:31;;;;;;;40.08;22.52;;;5.10;73.90;;;;;;5023496;28;20036;-64
2020/12/05 11:06:56;;;;;;;40.30;23.20;;;5.10;73.90;;;;;;5043577;28;20281;-66
2020/12/05 11:09:22;;;;;;;34.42;20.08;;;5.20;74.00;;;;;;5046707;28;20080;-65
2020/12/05 11:11:47;;;;;;;33.78;20.48;;;5.10;74.40;;;;;;5039178;28;20046;-65
2020/12/05 11:14:13;;;;;;;31.83;19.33;;;4.90;75.10;;;;;;5041198;28;20344;-65
2020/12/05 11:16:38;;;;;;;37.80;21.65;;;4.90;75.30;;;;;;5042045;28;20352;-68
2020/12/05 11:19:04;;;;;;;33.55;20.77;;;5.00;75.30;;;;;;5041621;28;20033;-69
2020/12/05 11:21:30;;;;;;;31.92;19.40;;;5.00;75.50;;;;;;5046544;28;20025;-66
2020/12/05 11:23:55;;;;;;;30.17;18.92;;;5.20;75.50;;;;;;5021890;28;20044;-67
2020/12/05 11:26:21;;;;;;;35.75;21.05;;;5.20;75.20;;;;;;5035096;28;20037;-65
2020/12/05 11:28:47;;;;;;;35.30;20.50;;;5.00;75.70;;;;;;5042970;28;20049;-72
2020/12/05 11:31:13;;;;;;;33.08;20.23;;;5.20;75.60;;;;;;5038213;28;20197;-71
2020/12/05 11:33:39;;;;;;;34.22;19.60;;;5.10;75.60;;;;;;5028224;28;20040;-68
2020/12/05 11:36:04;;;;;;;32.45;19.58;;;5.20;75.80;;;;;;5039432;28;20037;-67
2020/12/05 11:38:30;;;;;;;36.17;21.20;;;5.20;76.20;;;;;;5024454;28;20044;-68
2020/12/05 11:40:55;;;;;;;36.38;20.27;;;5.20;76.80;;;;;;5042142;28;20037;-66
2020/12/05 11:43:21;;;;;;;30.98;19.15;;;5.30;76.00;;;;;;5041432;28;20315;-67
2020/12/05 11:45:47;;;;;;;36.40;19.75;;;5.30;75.70;;;;;;5045999;28;20037;-67
2020/12/05 11:48:12;;;;;;;32.92;20.58;;;5.20;76.10;;;;;;5040130;28;20040;-67
2020/12/05 11:50:38;;;;;;;35.85;19.77;;;5.20;76.00;;;;;;5042736;28;20091;-67
2020/12/05 11:53:06;;;;;;;34.30;19.02;;;5.10;75.90;;;;;;5041424;28;20044;-67
2020/12/05 11:55:31;;;;;;;35.60;20.40;;;5.20;76.30;;;;;;5041316;28;20041;-66
2020/12/05 11:57:58;;;;;;;38.08;20.52;;;5.20;76.80;;;;;;5045931;28;20087;-68
2020/12/05 12:00:27;;;;;;;32.90;19.58;;;5.00;76.90;;;;;;5040656;28;20059;-66
2020/12/05 12:02:53;;;;;;;36.67;21.02;;;4.90;77.30;;;;;;5042228;28;20336;-67
2020/12/05 12:05:19;;;;;;;35.53;20.27;;;4.90;77.10;;;;;;5029219;28;20378;-66
2020/12/05 12:07:44;;;;;;;37.22;21.27;;;5.00;77.00;;;;;;5020483;28;20067;-67
2020/12/05 12:10:10;;;;;;;39.45;21.38;;;4.90;77.10;;;;;;5024716;28;20033;-67
2020/12/05 12:12:36;;;;;;;36.03;20.30;;;4.90;77.40;;;;;;5000277;28;20077;-67
2020/12/05 12:15:02;;;;;;;44.47;23.48;;;4.90;77.80;;;;;;5033827;28;20029;-67
2020/12/05 12:17:27;;;;;;;40.60;22.73;;;5.00;77.50;;;;;;5041871;28;20042;-68
2020/12/05 12:19:53;;;;;;;42.15;22.20;;;5.00;77.50;;;;;;5040627;28;20099;-67
2020/12/05 12:22:18;;;;;;;37.92;22.35;;;5.10;77.20;;;;;;5045280;28;20029;-67
2020/12/05 12:24:44;;;;;;;39.03;22.77;;;5.10;77.60;;;;;;5038377;28;20037;-67
2020/12/05 12:27:10;;;;;;;39.25;22.00;;;5.10;77.40;;;;;;5040508;28;20037;-68
2020/12/05 12:29:35;;;;;;;39.33;23.95;;;5.20;77.00;;;;;;5042507;28;20093;-64
2020/12/05 12:32:01;;;;;;;37.30;22.58;;;5.20;76.90;;;;;;5023801;28;20040;-64
2020/12/05 12:34:26;;;;;;;37.53;23.35;;;5.20;77.20;;;;;;5045045;28;20248;-69
2020/12/05 12:36:52;;;;;;;46.00;23.83;;;5.20;76.90;;;;;;5023340;28;20292;-70
2020/12/05 12:39:18;;;;;;;40.55;22.55;;;4.90;78.10;;;;;;5035556;28;20033;-69
2020/12/05 12:41:43;;;;;;;41.78;24.02;;;4.90;78.20;;;;;;5040536;28;20037;-68
2020/12/05 12:44:09;;;;;;;43.72;23.77;;;5.00;78.30;;;;;;5038990;28;20120;-68